Time;durP1;ratioP1;P1;durP2;ratioP2;P2;SDS_P1;SDS_P2;PMS_P1;PMS_P2;Temp;Humidity;BMP_temperature;BMP_pressure;BME280_temperature;BME280_humidity;BME280_pressure;Samples;Min_cycle;Max_cycle;Signal;HPM_P1;HPM_P2
2022/06/05 00:00:17;;;;;;;10.98;5.93;;;;;;;17.63;80.00;96653.16;5114682;28;20072;-63
2022/06/05 00:02:55;;;;;;;10.55;6.15;;;;;;;17.47;80.65;96651.50;5114669;28;20019;-64
2022/06/05 00:05:31;;;;;;;7.03;5.63;;;;;;;17.41;80.85;96647.47;5114503;28;20027;-66
2022/06/05 00:08:15;;;;;;;10.23;6.50;;;;;;;17.39;80.94;96637.91;5114438;28;20105;-64
2022/06/05 00:11:00;;;;;;;9.27;6.18;;;;;;;17.40;80.98;96634.34;5114549;28;20450;-65
2022/06/05 00:13:50;;;;;;;13.13;5.68;;;;;;;17.26;81.30;96627.28;5114400;28;20023;-65
2022/06/05 00:16:18;;;;;;;10.35;5.45;;;;;;;17.25;81.48;96630.91;5114390;28;20034;-64
2022/06/05 00:18:44;;;;;;;9.50;5.53;;;;;;;17.12;81.75;96631.66;5114301;28;20049;-64
2022/06/05 00:21:11;;;;;;;6.90;5.93;;;;;;;17.04;82.03;96626.81;5114252;28;20016;-61
2022/06/05 00:23:37;;;;;;;7.25;5.22;;;;;;;17.07;81.45;96632.91;5114296;28;20059;-64
2022/06/05 00:26:13;;;;;;;11.07;5.90;;;;;;;17.00;82.02;96627.97;5114103;28;20538;-61
2022/06/05 00:29:00;;;;;;;9.48;5.07;;;;;;;17.07;80.89;96622.34;5114062;28;20431;-65
2022/06/05 00:31:46;;;;;;;14.88;5.00;;;;;;;17.06;80.77;96629.38;5114152;28;20097;-61
2022/06/05 00:34:11;;;;;;;8.70;5.63;;;;;;;17.08;79.88;96629.31;5114164;28;20392;-65
2022/06/05 00:37:00;;;;;;;9.57;5.47;;;;;;;17.05;79.60;96628.53;5113778;28;20043;-64
2022/06/05 00:39:54;;;;;;;9.30;4.97;;;;;;;17.03;79.83;96625.13;5084897;28;20035;-61
2022/06/05 00:42:24;;;;;;;7.22;4.85;;;;;;;17.02;79.74;96626.09;5114120;28;20058;-65
2022/06/05 00:44:57;;;;;;;7.20;4.85;;;;;;;17.02;79.72;96627.88;5113851;28;20103;-63
2022/06/05 00:47:30;;;;;;;16.00;5.38;;;;;;;16.98;79.88;96615.81;5113953;28;20024;-60
2022/06/05 00:50:17;;;;;;;8.27;5.10;;;;;;;17.00;79.68;96630.59;5113850;28;20118;-62
2022/06/05 00:52:47;;;;;;;9.27;4.60;;;;;;;16.96;79.92;96626.47;5113704;28;20036;-63
2022/06/05 00:55:16;;;;;;;14.03;5.90;;;;;;;16.92;79.64;96624.97;5113746;28;20032;-63
2022/06/05 00:57:42;;;;;;;8.63;5.13;;;;;;;16.92;79.42;96631.09;5113451;28;20262;-65
2022/06/05 01:00:21;;;;;;;10.65;4.90;;;;;;;16.98;79.18;96626.38;5113114;28;20019;-66
2022/06/05 01:02:51;;;;;;;9.02;4.80;;;;;;;16.98;78.93;96629.03;5113663;28;20054;-63
2022/06/05 01:05:19;;;;;;;10.48;4.95;;;;;;;16.91;78.57;96616.19;5113657;28;20020;-62
2022/06/05 01:07:46;;;;;;;7.97;4.75;;;;;;;16.92;78.62;96622.31;5113493;28;20116;-66
2022/06/05 01:10:13;;;;;;;11.70;4.60;;;;;;;16.92;78.64;96624.97;5113443;28;20035;-63
2022/06/05 01:13:03;;;;;;;6.47;4.22;;;;;;;16.83;78.29;96618.47;5113543;28;20416;-62
2022/06/05 01:15:46;;;;;;;12.85;5.05;;;;;;;16.75;78.63;96611.00;5113735;28;20103;-64
2022/06/05 01:18:21;;;;;;;11.05;5.38;;;;;;;16.64;79.66;96606.38;5113437;28;20053;-64
2022/06/05 01:21:08;;;;;;;7.13;5.25;;;;;;;16.59;80.42;96600.56;5113488;28;20084;-67
2022/06/05 01:24:00;;;;;;;17.15;4.60;;;;;;;16.57;80.12;96594.50;5113392;28;20032;-62
2022/06/05 01:26:40;;;;;;;15.43;5.13;;;;;;;16.53;79.55;96591.19;5113431;28;20098;-65
2022/06/05 01:29:17;;;;;;;5.90;4.47;;;;;;;16.39;79.68;96593.84;5113409;28;20023;-63
2022/06/05 01:31:50;;;;;;;7.22;4.88;;;;;;;16.30;79.72;96600.53;5113327;28;20051;-63
2022/06/05 01:34:36;;;;;;;7.28;4.85;;;;;;;16.26;80.49;96602.50;5113517;28;20118;-63
2022/06/05 01:37:23;;;;;;;9.07;5.55;;;;;;;16.24;81.86;96604.41;5113334;28;20030;-64
2022/06/05 01:40:14;;;;;;;11.85;4.82;;;;;;;16.29;81.21;96599.66;5113398;28;20047;-65
2022/06/05 01:42:49;;;;;;;9.38;4.97;;;;;;;16.32;80.23;96596.03;5113182;28;20026;-64
2022/06/05 01:45:23;;;;;;;5.05;4.55;;;;;;;16.32;79.86;96600.44;5113226;28;20030;-62
2022/06/05 01:47:54;;;;;;;8.52;4.85;;;;;;;16.34;80.04;96606.47;5113191;28;20110;-63
2022/06/05 01:50:40;;;;;;;19.88;4.90;;;;;;;16.34;79.96;96603.84;5113257;28;20023;-64
2022/06/05 01:53:10;;;;;;;9.13;4.93;;;;;;;16.41;79.80;96607.81;5113209;28;20132;-62
2022/06/05 01:55:41;;;;;;;7.07;5.38;;;;;;;16.38;79.67;96608.00;5113112;28;20062;-64
2022/06/05 01:58:12;;;;;;;11.85;4.35;;;;;;;16.41;78.90;96608.63;5113284;28;20016;-64
2022/06/05 02:00:38;;;;;;;10.10;4.45;;;;;;;16.37;79.47;96598.34;5113264;28;20027;-64
2022/06/05 02:03:25;;;;;;;7.13;5.03;;;;;;;16.36;79.51;96594.03;5113132;28;20028;-63
2022/06/05 02:05:57;;;;;;;13.02;5.28;;;;;;;16.36;79.96;96594.88;5113053;28;20024;-64
2022/06/05 02:08:42;;;;;;;10.18;5.25;;;;;;;16.37;79.97;96588.66;5113057;28;20031;-65
2022/06/05 02:11:26;;;;;;;8.48;5.10;;;;;;;16.37;80.08;96587.78;5115886;28;20023;-63
2022/06/05 02:13:56;;;;;;;7.25;5.03;;;;;;;16.33;79.58;96581.88;5115439;28;20034;-63
2022/06/05 02:16:22;;;;;;;13.57;4.90;;;;;;;16.32;79.37;96588.09;5116717;28;20150;-63
2022/06/05 02:18:48;;;;;;;7.03;4.65;;;;;;;16.30;79.16;96587.34;5116599;28;20045;-63
2022/06/05 02:21:14;;;;;;;14.25;4.50;;;;;;;16.26;79.31;96575.28;5116676;28;20023;-67
2022/06/05 02:23:41;;;;;;;6.30;4.68;;;;;;;16.22;80.13;96585.16;5116567;28;20020;-65
2022/06/05 02:26:08;;;;;;;12.70;4.72;;;;;;;16.21;80.21;96586.09;5116544;28;20076;-66
2022/06/05 02:28:35;;;;;;;7.63;4.72;;;;;;;16.24;80.86;96588.56;5116424;28;20390;-65
2022/06/05 02:31:11;;;;;;;15.75;4.65;;;;;;;16.25;80.21;96578.84;5116596;28;20477;-63
2022/06/05 02:33:42;;;;;;;7.40;4.45;;;;;;;16.24;79.34;96572.72;5116376;27;20043;-65
2022/06/05 02:36:07;;;;;;;7.47;4.82;;;;;;;16.19;79.38;96569.50;5116160;28;20184;-62
2022/06/05 02:38:48;;;;;;;8.30;4.50;;;;;;;16.17;79.13;96566.97;5116251;28;20578;-63
2022/06/05 02:41:33;;;;;;;12.05;4.75;;;;;;;16.14;79.20;96572.41;5116329;28;20023;-61
2022/06/05 02:44:29;;;;;;;15.02;5.22;;;;;;;16.09;79.49;96576.28;5116245;28;20119;-63
2022/06/05 02:47:37;;;;;;;9.23;4.18;;;;;;;16.09;78.83;96573.63;5116076;28;20031;-63
2022/06/05 02:50:15;;;;;;;9.73;4.10;;;;;;;16.08;78.64;96582.50;5115979;28;20072;-64
2022/06/05 02:52:41;;;;;;;10.85;4.32;;;;;;;16.04;78.84;96587.97;5116092;28;20035;-67
2022/06/05 02:55:21;;;;;;;13.45;4.25;;;;;;;16.06;78.78;96585.22;5116025;28;20024;-65
2022/06/05 02:57:47;;;;;;;5.07;4.47;;;;;;;16.08;78.93;96583.34;5115835;28;20032;-62
2022/06/05 03:00:16;;;;;;;7.50;4.47;;;;;;;16.12;79.16;96578.72;5115875;28;20034;-65
2022/06/05 03:05:26;;;;;;;15.60;5.32;;;;;;;16.02;80.58;96579.28;5115813;28;20038;-61
2022/06/05 03:07:52;;;;;;;8.18;4.97;;;;;;;16.11;80.31;96577.03;5115657;28;20027;-63
2022/06/05 03:10:18;;;;;;;9.50;5.10;;;;;;;16.10;80.07;96575.34;5115553;28;20500;-64
2022/06/05 03:12:43;;;;;;;16.52;5.15;;;;;;;16.13;80.22;96578.63;5115680;27;20077;-63
2022/06/05 03:15:09;;;;;;;12.48;5.70;;;;;;;16.12;80.04;96574.31;5115765;28;20016;-63
2022/06/05 03:17:36;;;;;;;10.50;4.97;;;;;;;16.14;80.10;96563.66;5115499;28;20034;-63
2022/06/05 03:20:03;;;;;;;7.72;6.07;;;;;;;16.14;80.56;96561.84;5115503;27;20038;-62
2022/06/05 03:22:29;;;;;;;6.82;4.15;;;;;;;16.13;80.61;96561.94;5113155;28;20023;-65
2022/06/05 03:24:54;;;;;;;10.23;4.82;;;;;;;16.20;81.13;96565.09;5115417;28;20538;-62
2022/06/05 03:27:20;;;;;;;8.48;4.72;;;;;;;16.29;81.08;96564.53;5115247;28;20073;-65
2022/06/05 03:29:46;;;;;;;4.95;4.45;;;;;;;16.47;81.45;96567.84;5115211;28;20081;-62
2022/06/05 03:32:12;;;;;;;13.85;4.53;;;;;;;16.73;80.70;96569.78;5115189;28;20016;-61
2022/06/05 03:34:37;;;;;;;4.90;3.50;;;;;;;16.96;79.08;96570.13;5114869;28;20027;-65
2022/06/05 03:37:04;;;;;;;5.65;4.32;;;;;;;17.07;78.05;96573.00;5115158;28;20024;-65
2022/06/05 03:39:33;;;;;;;11.40;4.95;;;;;;;17.14;78.17;96569.00;5115057;28;20023;-66
2022/06/05 03:41:59;;;;;;;10.45;4.50;;;;;;;17.23;78.60;96569.34;5115059;28;20019;-63
2022/06/05 03:44:26;;;;;;;9.02;4.60;;;;;;;17.22;78.83;96563.19;5114967;28;20019;-66
2022/06/05 03:46:51;;;;;;;6.38;4.70;;;;;;;17.28;79.14;96572.53;5115024;28;20020;-66
2022/06/05 03:49:17;;;;;;;6.00;4.88;;;;;;;17.32;79.79;96576.69;5114833;28;20412;-64
2022/06/05 03:51:45;;;;;;;5.95;4.78;;;;;;;17.39;79.93;96569.19;5114986;28;20020;-66
2022/06/05 03:54:11;;;;;;;7.68;4.78;;;;;;;17.44;79.88;96561.81;5114755;28;20035;-63
2022/06/05 03:56:37;;;;;;;11.75;4.57;;;;;;;17.51;80.27;96560.47;5114756;28;20077;-61
2022/06/05 03:59:03;;;;;;;5.80;4.60;;;;;;;17.52;80.33;96554.22;5114622;27;20538;-64
2022/06/05 04:01:29;;;;;;;4.90;4.38;;;;;;;17.64;80.34;96557.00;5114533;28;20016;-63
2022/06/05 04:03:55;;;;;;;5.20;4.50;;;;;;;17.93;79.82;96538.31;5114618;28;20024;-67
2022/06/05 04:06:27;;;;;;;5.53;3.97;;;;;;;18.30;79.23;96542.91;5114554;28;20035;-62
2022/06/05 04:08:55;;;;;;;5.90;4.80;;;;;;;18.77;77.84;96540.53;5114369;28;20392;-61
2022/06/05 04:11:21;;;;;;;7.03;3.97;;;;;;;19.33;76.35;96530.41;5114602;28;20454;-62
2022/06/05 04:13:47;;;;;;;10.80;4.07;;;;;;;19.85;74.75;96527.44;5114328;28;20023;-64
2022/06/05 04:16:19;;;;;;;7.40;3.30;;;;;;;20.29;72.70;96526.81;5114350;28;20027;-67
2022/06/05 04:18:45;;;;;;;6.97;3.95;;;;;;;20.73;71.04;96526.06;5114376;28;20027;-64
2022/06/05 04:21:17;;;;;;;4.47;3.33;;;;;;;21.25;69.37;96533.50;5114247;28;20068;-67
2022/06/05 04:23:43;;;;;;;6.65;3.72;;;;;;;21.71;67.90;96536.81;5114249;28;20043;-67
2022/06/05 04:26:11;;;;;;;5.20;3.58;;;;;;;22.14;66.01;96531.53;5114283;28;20028;-67
2022/06/05 04:28:38;;;;;;;9.80;3.95;;;;;;;22.59;65.49;96538.38;5114000;28;20481;-62
2022/06/05 04:31:04;;;;;;;5.43;3.55;;;;;;;22.99;64.04;96547.34;5114085;28;20525;-64
2022/06/05 04:33:32;;;;;;;8.05;3.90;;;;;;;23.41;63.54;96548.13;5113786;28;20050;-63
2022/06/05 04:35:58;;;;;;;6.35;3.78;;;;;;;23.81;62.50;96547.16;5113773;28;20147;-64
2022/06/05 04:38:24;;;;;;;5.40;3.85;;;;;;;24.15;61.27;96537.88;5112774;28;20040;-65
2022/06/05 04:40:50;;;;;;;8.60;4.55;;;;;;;24.57;59.46;96531.28;5113950;28;20019;-65
2022/06/05 04:43:16;;;;;;;12.60;5.30;;;;;;;24.88;58.09;96532.84;5114040;28;20035;-63
2022/06/05 04:45:43;;;;;;;8.93;4.07;;;;;;;25.08;58.35;96530.06;5113963;28;20028;-65
2022/06/05 04:48:10;;;;;;;8.73;4.60;;;;;;;25.28;57.20;96522.75;5113738;28;20103;-66
2022/06/05 04:50:37;;;;;;;4.68;3.72;;;;;;;25.56;56.10;96520.00;5113800;28;20362;-64
2022/06/05 04:53:04;;;;;;;10.73;3.85;;;;;;;25.88;54.72;96520.44;5113739;28;20076;-68
2022/06/05 04:55:29;;;;;;;5.95;3.75;;;;;;;26.07;55.09;96522.09;5113847;28;20026;-69
2022/06/05 04:57:55;;;;;;;6.78;4.43;;;;;;;26.32;56.90;96522.28;5113806;28;20024;-65
2022/06/05 05:00:22;;;;;;;6.60;4.10;;;;;;;26.49;57.12;96517.03;5113696;28;20024;-66
2022/06/05 05:02:49;;;;;;;5.70;3.60;;;;;;;26.69;54.29;96527.50;5113623;28;20023;-67
2022/06/05 05:17:10;;;;;;;9.10;4.28;;;;;;;28.26;51.45;96526.91;5131908;27;20375;-66
2022/06/05 05:19:35;;;;;;;7.43;3.90;;;;;;;28.35;51.87;96529.63;5131387;27;20023;-63
2022/06/05 05:22:01;;;;;;;7.80;3.92;;;;;;;28.45;52.67;96526.75;5131309;28;20026;-68
2022/06/05 05:24:26;;;;;;;7.28;3.83;;;;;;;28.46;51.81;96518.50;5131143;27;20046;-64
2022/06/05 05:26:52;;;;;;;4.93;3.60;;;;;;;28.51;50.68;96515.31;5131111;27;20527;-64
2022/06/05 05:29:17;;;;;;;5.60;3.33;;;;;;;28.68;50.28;96520.63;5131218;27;20030;-69
2022/06/05 05:31:45;;;;;;;5.75;3.60;;;;;;;28.80;50.88;96515.72;5131066;27;20031;-67
2022/06/05 05:34:13;;;;;;;6.00;3.78;;;;;;;28.89;51.26;96510.09;5131203;27;20016;-67
2022/06/05 05:36:39;;;;;;;5.45;4.30;;;;;;;28.87;49.60;96509.44;5131177;27;20024;-65
2022/06/05 05:42:04;;;;;;;8.85;3.83;;;;;;;29.20;52.99;96507.63;5131346;28;20034;-66
2022/06/05 05:44:38;;;;;;;5.90;4.00;;;;;;;29.48;50.83;96510.63;5130807;27;20039;-69
2022/06/05 05:47:08;;;;;;;7.35;4.45;;;;;;;29.76;48.90;96504.72;5130771;27;20024;-67
2022/06/05 05:49:34;;;;;;;8.13;4.93;;;;;;;29.88;49.12;96490.81;5130833;27;20491;-65
2022/06/05 05:51:59;;;;;;;7.57;4.85;;;;;;;30.08;49.40;96498.38;5130784;27;20110;-68
2022/06/05 05:54:25;;;;;;;8.13;5.45;;;;;;;30.33;49.07;96487.34;5130734;28;20460;-67
2022/06/05 05:56:51;;;;;;;11.88;5.45;;;;;;;30.50;48.67;96504.19;5130604;27;20099;-67
2022/06/05 05:59:19;;;;;;;9.38;4.82;;;;;;;30.63;47.14;96503.53;5130512;27;20042;-65
2022/06/05 06:01:45;;;;;;;9.85;4.63;;;;;;;30.71;48.88;96503.47;5130605;27;20102;-66
2022/06/05 06:04:11;;;;;;;14.75;5.28;;;;;;;30.87;46.60;96499.75;5130560;27;20011;-67
2022/06/05 06:06:41;;;;;;;15.23;4.63;;;;;;;31.05;46.70;96503.03;5130418;27;20544;-63
2022/06/05 06:09:07;;;;;;;5.77;4.87;;;;;;;31.12;47.15;96510.19;5130522;27;20535;-67
2022/06/05 06:11:33;;;;;;;9.80;4.60;;;;;;;31.32;46.88;96498.78;5130382;27;20125;-65
2022/06/05 06:13:59;;;;;;;5.20;4.25;;;;;;;31.41;46.38;96494.13;5130384;27;20028;-63
2022/06/05 06:16:28;;;;;;;7.78;4.13;;;;;;;31.51;45.82;96502.75;5125927;27;20114;-68
2022/06/05 06:18:55;;;;;;;7.07;4.43;;;;;;;31.67;47.29;96506.22;5116625;27;20028;-67
2022/06/05 06:21:20;;;;;;;10.82;4.47;;;;;;;31.78;46.43;96511.09;5115155;28;20499;-65
2022/06/05 06:23:46;;;;;;;6.50;4.75;;;;;;;31.83;46.18;96502.41;5116584;28;20028;-64
2022/06/05 06:26:12;;;;;;;6.35;4.00;;;;;;;32.07;46.36;96502.19;5116307;28;20020;-70
2022/06/05 06:28:38;;;;;;;9.00;4.25;;;;;;;32.19;45.30;96506.03;5116386;28;20092;-71
2022/06/05 06:31:09;;;;;;;14.95;4.35;;;;;;;32.18;44.63;96498.13;5116302;28;20070;-68
2022/06/05 06:33:36;;;;;;;7.13;4.20;;;;;;;32.10;43.84;96499.94;5116146;28;20065;-64
2022/06/05 06:36:03;;;;;;;8.52;4.53;;;;;;;32.10;44.39;96499.09;5116081;28;20468;-66
2022/06/05 06:38:30;;;;;;;6.80;4.60;;;;;;;32.19;45.22;96495.22;5116058;28;20072;-66
2022/06/05 06:41:00;;;;;;;8.63;4.40;;;;;;;32.08;44.83;96503.88;5116165;28;20043;-65
2022/06/05 06:43:27;;;;;;;7.90;4.63;;;;;;;32.20;45.06;96496.88;5116096;28;20430;-67
2022/06/05 06:45:53;;;;;;;7.10;3.97;;;;;;;32.31;45.45;96500.91;5115830;28;20047;-68
2022/06/05 06:48:18;;;;;;;6.88;4.53;;;;;;;32.58;45.03;96498.41;5116145;28;20055;-63
2022/06/05 06:50:45;;;;;;;8.20;4.53;;;;;;;32.64;44.99;96507.59;5115955;28;20022;-68
2022/06/05 06:53:10;;;;;;;11.05;3.90;;;;;;;32.63;44.61;96503.22;5115934;28;20101;-64
2022/06/05 06:55:36;;;;;;;13.43;4.13;;;;;;;32.87;45.23;96509.97;5115750;28;20030;-67
2022/06/05 06:58:02;;;;;;;9.10;4.00;;;;;;;33.01;43.80;96499.19;5115792;28;20361;-68
2022/06/05 07:00:28;;;;;;;9.15;4.35;;;;;;;32.74;42.07;96509.91;5115726;28;20095;-68
2022/06/05 07:02:54;;;;;;;5.03;4.50;;;;;;;32.37;43.29;96510.94;5115770;28;20469;-64
2022/06/05 07:05:20;;;;;;;6.53;4.75;;;;;;;32.22;44.17;96499.38;5115592;28;20034;-70
2022/06/05 07:07:45;;;;;;;8.50;4.60;;;;;;;32.49;42.27;96503.16;5115562;28;20024;-69
2022/06/05 07:10:11;;;;;;;5.07;3.85;;;;;;;32.65;41.62;96498.41;5115589;28;20483;-70
2022/06/05 07:12:37;;;;;;;7.57;4.45;;;;;;;32.61;41.04;96498.00;5115502;28;20488;-68
2022/06/05 07:15:05;;;;;;;11.50;4.72;;;;;;;32.75;42.26;96492.66;5115367;27;20075;-68
2022/06/05 07:17:31;;;;;;;6.65;4.38;;;;;;;33.06;41.30;96495.91;5115501;28;20024;-65
2022/06/05 07:19:57;;;;;;;11.30;3.67;;;;;;;33.17;40.89;96500.75;5115341;28;20034;-69
2022/06/05 07:22:23;;;;;;;7.28;4.28;;;;;;;33.13;39.19;96499.47;5115478;28;20023;-69
2022/06/05 07:24:48;;;;;;;6.95;4.55;;;;;;;32.83;40.98;96510.59;5115185;28;20024;-70
2022/06/05 07:27:14;;;;;;;6.53;4.05;;;;;;;32.90;41.22;96503.34;5115153;28;20027;-69
2022/06/05 07:29:40;;;;;;;10.23;4.10;;;;;;;33.24;40.49;96504.31;5114237;28;20019;-63
2022/06/05 07:32:06;;;;;;;8.48;4.63;;;;;;;33.00;42.78;96505.66;5115168;28;20461;-69
2022/06/05 07:34:32;;;;;;;11.77;4.50;;;;;;;33.29;40.12;96501.00;5114995;28;20377;-65
2022/06/05 07:36:59;;;;;;;8.38;4.15;;;;;;;33.30;40.46;96499.09;5113686;28;20023;-69
2022/06/05 07:39:26;;;;;;;8.48;4.10;;;;;;;32.64;40.79;96503.03;5115060;28;20032;-65
2022/06/05 07:41:52;;;;;;;6.82;4.13;;;;;;;32.60;39.86;96503.63;5114927;28;20375;-69
2022/06/05 07:44:18;;;;;;;7.43;3.80;;;;;;;32.97;39.96;96509.63;5114875;28;20012;-64
2022/06/05 07:46:43;;;;;;;8.98;4.00;;;;;;;33.13;39.91;96510.31;5114625;28;20027;-65
2022/06/05 07:49:09;;;;;;;7.70;4.25;;;;;;;32.71;39.86;96504.94;5114639;28;20019;-70
2022/06/05 07:54:30;;;;;;;5.50;4.20;;;;;;;31.44;41.83;96501.00;5114780;28;20446;-63
2022/06/05 07:57:12;;;;;;;8.32;4.30;;;;;;;31.25;41.67;96503.28;5114850;28;20353;-69
2022/06/05 07:59:41;;;;;;;9.55;4.30;;;;;;;31.18;42.48;96505.06;5114632;28;20063;-66
2022/06/05 08:02:23;;;;;;;9.27;4.00;;;;;;;31.08;42.24;96505.38;5114494;27;20027;-71
2022/06/05 08:04:51;;;;;;;8.50;4.10;;;;;;;30.81;42.54;96500.50;5114413;28;20028;-66
2022/06/05 08:07:21;;;;;;;5.68;4.32;;;;;;;30.84;43.57;96512.75;5114510;28;20488;-66
2022/06/05 08:09:47;;;;;;;9.10;4.47;;;;;;;30.88;44.53;96503.28;5114547;27;20031;-64
2022/06/05 08:12:15;;;;;;;13.57;4.47;;;;;;;30.93;44.45;96508.09;5114239;28;20035;-66
2022/06/05 08:14:44;;;;;;;6.53;4.70;;;;;;;30.87;43.65;96501.59;5114186;28;20053;-71
2022/06/05 08:17:13;;;;;;;7.72;4.53;;;;;;;30.66;42.73;96502.34;5113239;28;20396;-63
2022/06/05 08:19:41;;;;;;;6.80;4.68;;;;;;;30.56;44.65;96506.16;5114392;28;20061;-65
2022/06/05 08:22:08;;;;;;;10.95;4.70;;;;;;;30.57;44.30;96501.59;5114254;28;20020;-68
2022/06/05 08:24:34;;;;;;;7.53;4.30;;;;;;;30.57;43.86;96493.50;5113974;28;20016;-69
2022/06/05 08:27:00;;;;;;;6.93;4.50;;;;;;;30.93;44.66;96498.13;5114032;28;20542;-68
2022/06/05 08:29:26;;;;;;;7.53;4.15;;;;;;;31.26;45.09;96491.44;5112746;28;20016;-66
2022/06/05 08:31:53;;;;;;;12.93;4.30;;;;;;;31.37;42.33;96490.13;5113928;28;20027;-72
2022/06/05 08:34:20;;;;;;;5.72;4.38;;;;;;;31.20;41.61;96490.34;5114103;28;20020;-65
2022/06/05 08:36:46;;;;;;;8.40;4.05;;;;;;;31.35;42.81;96497.59;5113850;28;20027;-62
2022/06/05 08:42:21;;;;;;;7.25;4.13;;;;;;;31.95;42.39;96497.34;5114259;28;20442;-66
2022/06/05 08:44:47;;;;;;;;;;;;;;;32.18;39.37;96490.00;5114307;28;20026;-64
2022/06/05 08:47:53;;;;;;;9.77;4.53;;;;;;;32.44;39.45;96489.34;5113917;28;20002;-69
2022/06/05 08:50:47;;;;;;;8.68;4.57;;;;;;;32.47;37.27;96483.53;5083016;28;20063;-67
2022/06/05 08:53:25;;;;;;;12.38;5.07;;;;;;;32.12;37.86;96481.63;5113902;28;20058;-65
2022/06/05 08:55:53;;;;;;;8.20;5.00;;;;;;;31.97;40.50;96487.19;5113725;28;20429;-66
2022/06/05 08:58:33;;;;;;;5.30;4.60;;;;;;;32.02;38.16;96486.56;5113768;28;20028;-67
2022/06/05 09:01:08;;;;;;;11.63;5.15;;;;;;;32.26;39.92;96476.31;5113826;28;20030;-70
2022/06/05 09:04:05;;;;;;;8.80;4.50;;;;;;;32.57;38.06;96471.53;5113594;28;20051;-67
2022/06/05 09:06:44;;;;;;;12.25;4.97;;;;;;;32.53;38.18;96469.22;5113604;28;20031;-65
2022/06/05 09:09:20;;;;;;;8.20;4.72;;;;;;;32.07;39.50;96478.69;5113653;28;20445;-65
2022/06/05 09:11:57;;;;;;;9.80;5.30;;;;;;;32.24;39.03;96473.81;5113561;28;20473;-65
2022/06/05 09:14:39;;;;;;;11.95;5.13;;;;;;;32.21;39.73;96473.38;5113391;28;20501;-61
2022/06/05 09:17:16;;;;;;;8.18;5.20;;;;;;;32.06;40.59;96470.78;5113342;28;20061;-69
2022/06/05 09:19:43;;;;;;;8.38;5.00;;;;;;;31.88;38.35;96466.69;5113419;28;20027;-65
2022/06/05 09:22:35;;;;;;;9.93;5.07;;;;;;;31.72;39.00;96463.22;5113598;28;20368;-64
2022/06/05 09:25:05;;;;;;;8.93;5.05;;;;;;;31.65;38.40;96457.78;5113424;28;20032;-66
2022/06/05 09:28:08;;;;;;;7.80;4.75;;;;;;;31.90;38.09;96464.59;5113509;28;20088;-64
2022/06/05 09:30:47;;;;;;;5.35;4.68;;;;;;;31.89;37.60;96458.38;5113548;28;20085;-65
2022/06/05 09:33:21;;;;;;;8.45;4.93;;;;;;;31.97;38.78;96457.44;5113386;28;20028;-67
2022/06/05 09:36:03;;;;;;;6.38;4.90;;;;;;;31.92;39.22;96451.75;5113316;28;20027;-70
2022/06/05 09:38:40;;;;;;;8.60;4.75;;;;;;;31.80;39.18;96456.00;5113232;28;20027;-67
2022/06/05 09:41:12;;;;;;;5.80;5.13;;;;;;;31.76;39.00;96448.28;5113350;28;20047;-66
2022/06/05 09:43:53;;;;;;;8.82;5.22;;;;;;;31.78;40.06;96442.69;5113385;28;20098;-67
2022/06/05 09:46:45;;;;;;;9.75;4.60;;;;;;;31.82;37.61;96443.13;5113278;28;20031;-65
2022/06/05 09:49:40;;;;;;;6.63;4.63;;;;;;;31.72;37.50;96430.78;5113098;28;20034;-65
2022/06/05 09:52:20;;;;;;;8.55;4.45;;;;;;;31.90;37.93;96430.31;5114614;28;20027;-67
2022/06/05 09:54:52;;;;;;;8.18;4.32;;;;;;;32.20;36.62;96423.03;5117083;28;20022;-68
2022/06/05 10:00:44;;;;;;;6.53;4.72;;;;;;;32.60;38.59;96422.44;5117059;28;20084;-67
2022/06/05 10:03:14;;;;;;;8.32;4.75;;;;;;;32.74;37.36;96421.44;5116809;28;20034;-67
2022/06/05 10:05:46;;;;;;;12.10;4.97;;;;;;;32.68;37.67;96432.25;5116928;28;20030;-67
2022/06/05 10:08:19;;;;;;;8.07;4.75;;;;;;;32.68;37.69;96433.06;5116848;28;20381;-67
2022/06/05 10:10:47;;;;;;;10.45;5.10;;;;;;;32.70;37.85;96424.75;5116838;28;20373;-69
2022/06/05 10:13:15;;;;;;;8.57;4.65;;;;;;;32.76;37.27;96426.63;5116774;28;20484;-64
2022/06/05 10:16:10;;;;;;;6.15;4.80;;;;;;;32.94;38.41;96423.38;5116337;28;20047;-67
2022/06/05 10:19:11;;;;;;;8.40;4.90;;;;;;;32.89;36.50;96425.84;5090419;28;20192;-70
2022/06/05 10:21:43;;;;;;;7.03;4.60;;;;;;;32.71;37.69;96421.00;5116786;28;20034;-66
2022/06/05 10:24:34;;;;;;;8.77;4.93;;;;;;;32.42;38.20;96422.94;5116639;28;20400;-64
2022/06/05 10:27:02;;;;;;;7.80;4.38;;;;;;;32.26;39.42;96425.78;5116383;28;20032;-64
2022/06/05 10:29:37;;;;;;;8.27;5.35;;;;;;;32.32;39.03;96413.31;5116434;28;20061;-66
2022/06/05 10:32:14;;;;;;;8.77;4.82;;;;;;;32.40;39.45;96412.31;5116390;27;20504;-68
2022/06/05 10:34:42;;;;;;;13.27;4.95;;;;;;;32.46;37.85;96407.97;5116526;28;20469;-69
2022/06/05 10:37:24;;;;;;;8.00;4.78;;;;;;;32.49;38.23;96397.63;5116380;27;20028;-64
2022/06/05 10:40:21;;;;;;;7.70;5.10;;;;;;;32.62;39.08;96398.69;5116119;28;20043;-67
2022/06/05 10:42:55;;;;;;;7.63;4.63;;;;;;;32.81;37.54;96388.97;5116070;28;20477;-61
2022/06/05 10:45:34;;;;;;;12.90;4.55;;;;;;;32.86;37.46;96374.81;5115990;28;20085;-67
2022/06/05 10:48:41;;;;;;;8.18;4.18;;;;;;;33.08;35.67;96380.09;5116133;28;20027;-65
2022/06/05 10:51:09;;;;;;;10.82;4.13;;;;;;;33.33;37.22;96372.22;5116052;28;20024;-65
2022/06/05 10:53:47;;;;;;;7.97;4.20;;;;;;;33.39;36.08;96375.97;5115795;28;20023;-67
2022/06/05 10:56:28;;;;;;;9.27;3.83;;;;;;;33.43;33.79;96363.66;5115864;28;20030;-70
2022/06/05 10:59:27;;;;;;;10.23;3.97;;;;;;;33.30;34.36;96361.78;5115877;28;20028;-64
2022/06/05 11:02:31;;;;;;;5.80;3.90;;;;;;;33.10;34.20;96370.72;5097949;28;20092;-67
2022/06/05 11:05:27;;;;;;;7.60;4.00;;;;;;;33.14;35.58;96361.13;5115608;28;20031;-68
2022/06/05 11:08:20;;;;;;;11.18;4.53;;;;;;;33.36;34.15;96354.69;5115685;28;20488;-68
2022/06/05 11:14:13;;;;;;;12.45;4.10;;;;;;;33.23;35.11;96367.19;5115751;28;20084;-68
2022/06/05 11:16:48;;;;;;;10.43;4.50;;;;;;;33.16;35.37;96366.34;5115338;28;20123;-70
2022/06/05 11:19:27;;;;;;;11.45;4.07;;;;;;;33.07;34.46;96357.59;5115307;28;20031;-68
2022/06/05 11:21:58;;;;;;;5.60;3.33;;;;;;;33.17;34.53;96357.19;5115265;28;20404;-64
2022/06/05 11:24:30;;;;;;;;;;;;;;;33.22;34.37;96354.69;5115811;28;20472;-64
2022/06/05 11:27:14;;;;;;;6.93;3.80;;;;;;;33.35;33.98;96353.84;5115236;28;19911;-67
2022/06/05 11:30:05;;;;;;;8.40;3.47;;;;;;;33.48;34.44;96352.19;5115237;28;20427;-67
2022/06/05 11:33:08;;;;;;;7.57;3.83;;;;;;;33.58;33.60;96363.44;5073282;28;20039;-66
2022/06/05 11:35:39;;;;;;;8.10;3.67;;;;;;;33.52;34.66;96351.56;5115234;28;20043;-63
2022/06/05 11:38:17;;;;;;;4.63;3.28;;;;;;;33.43;33.93;96343.88;5115050;28;20115;-68
2022/06/05 11:41:32;;;;;;;10.07;3.42;;;;;;;33.58;33.97;96333.63;5115140;28;20034;-70
2022/06/05 11:44:26;;;;;;;6.90;3.47;;;;;;;33.46;34.14;96332.56;5069503;28;20427;-68
2022/06/05 11:46:57;;;;;;;6.80;3.97;;;;;;;33.50;34.92;96334.66;5114745;28;20032;-66
2022/06/05 11:49:57;;;;;;;6.30;3.90;;;;;;;33.60;35.46;96323.44;5114935;28;20028;-67
2022/06/05 11:53:02;;;;;;;6.30;3.30;;;;;;;33.63;32.49;96317.59;5114826;28;20026;-66
2022/06/05 11:55:43;;;;;;;11.02;3.35;;;;;;;33.78;34.41;96324.66;5113444;28;20036;-69
2022/06/05 11:58:15;;;;;;;5.15;3.15;;;;;;;33.64;32.88;96326.53;5114625;28;20384;-65
2022/06/05 12:00:59;;;;;;;10.45;3.97;;;;;;;33.80;30.13;96321.72;5114494;28;20036;-69
2022/06/05 12:03:28;;;;;;;4.00;2.80;;;;;;;33.72;30.02;96309.22;5114678;28;20051;-68
2022/06/05 12:06:08;;;;;;;6.95;3.10;;;;;;;33.83;32.90;96313.19;5114309;28;20024;-67
2022/06/05 12:08:42;;;;;;;6.90;3.15;;;;;;;33.93;31.79;96310.00;5114438;28;20072;-67
2022/06/05 12:11:18;;;;;;;5.43;2.97;;;;;;;33.97;31.30;96306.66;5114471;28;20055;-66
2022/06/05 12:13:59;;;;;;;3.80;3.13;;;;;;;33.97;30.82;96297.69;5114586;28;20350;-68
2022/06/05 12:17:02;;;;;;;9.40;3.15;;;;;;;33.80;30.78;96311.72;5113867;28;20066;-68
2022/06/05 12:19:30;;;;;;;8.02;2.60;;;;;;;33.61;28.61;96298.00;5114136;28;20034;-67
2022/06/05 12:22:21;;;;;;;5.40;3.03;;;;;;;33.55;29.89;96306.94;5113896;28;20058;-65
2022/06/05 12:24:46;;;;;;;;;;;;;;;33.52;28.74;96297.34;5113564;28;20035;-67
2022/06/05 12:27:19;;;;;;;4.63;1.95;;;;;;;33.40;27.28;96293.63;5112071;28;19916;-67
2022/06/05 12:30:03;;;;;;;8.00;2.20;;;;;;;33.32;28.02;96300.09;5113900;28;20024;-67